Terminal Aerodrome Forecast
Issued by NWS Paducah, KY

Home | Current Version | Previous Version | Text Only | Print | Product List | Glossary On
Versions: 1 2 3 4 5 6 7 8 9 10 11 12 13 14 15 16 17 18 19 20 21
994
FTUS43 KPAH 111720
TAFEVV
TAF
KEVV 111720Z 1118/1218 03008KT P6SM SCT015 BKN050
      TEMPO 1118/1122 SCT050 BKN100
     FM120000 03004KT P6SM SCT040 OVC100
     FM120900 VRB03KT 3SM -SN SCT020 OVC040 PROB30 1209/1215 1SM -SN
      BR BKN020=

USA.gov is the U.S. government's official web portal to all federal, state and local government web resources and services.